sensor_id;sensor_type;location;lat;lon;timestamp;pressure;altitude;pressure_sealevel;temperature;humidity
6778;BME280;3426;52.244;10.534;2023-01-28T00:01:15;101927.81;;;4.47;60.03
6778;BME280;3426;52.244;10.534;2023-01-28T00:03:42;101932.06;;;4.59;59.89
6778;BME280;3426;52.244;10.534;2023-01-28T00:06:11;101939.59;;;3.97;61.36
6778;BME280;3426;52.244;10.534;2023-01-28T00:08:39;101946.16;;;4.52;60.31
6778;BME280;3426;52.244;10.534;2023-01-28T00:11:08;101941.00;;;4.37;59.89
6778;BME280;3426;52.244;10.534;2023-01-28T00:13:35;101940.88;;;4.53;60.92
6778;BME280;3426;52.244;10.534;2023-01-28T00:16:04;101936.66;;;4.37;61.99
6778;BME280;3426;52.244;10.534;2023-01-28T00:18:32;101933.03;;;4.52;61.46
6778;BME280;3426;52.244;10.534;2023-01-28T00:21:10;101937.53;;;4.38;60.96
6778;BME280;3426;52.244;10.534;2023-01-28T00:23:38;101924.34;;;4.48;61.04
6778;BME280;3426;52.244;10.534;2023-01-28T00:26:09;101931.16;;;4.65;61.57
6778;BME280;3426;52.244;10.534;2023-01-28T00:28:35;101925.13;;;4.53;62.01
6778;BME280;3426;52.244;10.534;2023-01-28T00:31:11;101933.78;;;4.66;61.51
6778;BME280;3426;52.244;10.534;2023-01-28T00:33:39;101924.13;;;4.71;61.10
6778;BME280;3426;52.244;10.534;2023-01-28T00:36:05;101928.47;;;4.72;61.17
6778;BME280;3426;52.244;10.534;2023-01-28T00:38:32;101922.16;;;3.87;61.60
6778;BME280;3426;52.244;10.534;2023-01-28T00:41:10;101929.69;;;4.33;61.65
6778;BME280;3426;52.244;10.534;2023-01-28T00:43:37;101924.09;;;4.73;60.70
6778;BME280;3426;52.244;10.534;2023-01-28T00:46:04;101929.31;;;4.77;60.04
6778;BME280;3426;52.244;10.534;2023-01-28T00:48:33;101932.78;;;4.78;59.30
6778;BME280;3426;52.244;10.534;2023-01-28T00:51:00;101927.03;;;4.39;60.31
6778;BME280;3426;52.244;10.534;2023-01-28T00:53:28;101924.69;;;4.04;61.40
6778;BME280;3426;52.244;10.534;2023-01-28T00:55:54;101941.59;;;3.48;62.26
6778;BME280;3426;52.244;10.534;2023-01-28T00:58:21;101932.41;;;4.19;60.82
6778;BME280;3426;52.244;10.534;2023-01-28T01:00:49;101939.34;;;4.30;60.55
6778;BME280;3426;52.244;10.534;2023-01-28T01:03:17;101947.03;;;4.51;59.19
6778;BME280;3426;52.244;10.534;2023-01-28T01:05:43;101939.34;;;4.31;59.74
6778;BME280;3426;52.244;10.534;2023-01-28T01:08:10;101940.34;;;4.15;61.09
6778;BME280;3426;52.244;10.534;2023-01-28T01:10:37;101943.91;;;4.03;60.82
6778;BME280;3426;52.244;10.534;2023-01-28T01:13:05;101942.41;;;4.76;58.73
6778;BME280;3426;52.244;10.534;2023-01-28T01:15:32;101950.22;;;4.82;58.70
6778;BME280;3426;52.244;10.534;2023-01-28T01:17:59;101953.69;;;4.87;58.21
6778;BME280;3426;52.244;10.534;2023-01-28T01:20:27;101952.81;;;4.90;58.90
6778;BME280;3426;52.244;10.534;2023-01-28T01:22:55;101957.25;;;3.56;61.13
6778;BME280;3426;52.244;10.534;2023-01-28T01:25:21;101955.50;;;3.52;61.54
6778;BME280;3426;52.244;10.534;2023-01-28T01:27:48;101963.31;;;3.71;60.43
6778;BME280;3426;52.244;10.534;2023-01-28T01:30:15;101949.25;;;3.86;59.46
6778;BME280;3426;52.244;10.534;2023-01-28T01:32:42;101960.50;;;4.02;59.20
6778;BME280;3426;52.244;10.534;2023-01-28T01:35:09;101950.88;;;4.09;58.99
6778;BME280;3426;52.244;10.534;2023-01-28T01:37:36;101962.31;;;3.94;59.05
6778;BME280;3426;52.244;10.534;2023-01-28T01:40:04;101961.91;;;4.47;57.06
6778;BME280;3426;52.244;10.534;2023-01-28T01:42:31;101958.72;;;4.09;58.74
6778;BME280;3426;52.244;10.534;2023-01-28T01:45:10;101952.31;;;4.46;57.11
6778;BME280;3426;52.244;10.534;2023-01-28T01:47:43;101957.59;;;4.40;58.40
6778;BME280;3426;52.244;10.534;2023-01-28T01:52:58;101959.53;;;4.14;58.30
6778;BME280;3426;52.244;10.534;2023-01-28T01:55:30;101951.91;;;3.80;59.15
6778;BME280;3426;52.244;10.534;2023-01-28T01:58:00;101951.91;;;3.77;58.73
6778;BME280;3426;52.244;10.534;2023-01-28T02:00:27;101961.19;;;4.29;57.99
6778;BME280;3426;52.244;10.534;2023-01-28T02:02:54;101958.31;;;4.61;57.18
6778;BME280;3426;52.244;10.534;2023-01-28T02:05:22;101961.38;;;4.04;58.83
6778;BME280;3426;52.244;10.534;2023-01-28T02:07:51;101970.19;;;3.92;57.99
6778;BME280;3426;52.244;10.534;2023-01-28T02:10:21;101966.56;;;4.12;58.37
6778;BME280;3426;52.244;10.534;2023-01-28T02:12:52;101971.22;;;3.59;59.79
6778;BME280;3426;52.244;10.534;2023-01-28T02:15:23;101966.94;;;3.32;60.68
6778;BME280;3426;52.244;10.534;2023-01-28T02:17:51;101970.34;;;3.63;59.98
6778;BME280;3426;52.244;10.534;2023-01-28T02:20:22;101965.06;;;3.68;59.36
6778;BME280;3426;52.244;10.534;2023-01-28T02:25:57;101969.38;;;3.78;58.70
6778;BME280;3426;52.244;10.534;2023-01-28T02:28:51;101973.00;;;3.53;59.53
6778;BME280;3426;52.244;10.534;2023-01-28T02:31:31;101974.63;;;3.81;58.86
6778;BME280;3426;52.244;10.534;2023-01-28T02:34:18;101973.69;;;3.91;57.88
6778;BME280;3426;52.244;10.534;2023-01-28T02:37:01;101968.25;;;4.22;57.13
6778;BME280;3426;52.244;10.534;2023-01-28T02:39:33;101978.94;;;3.88;57.79
6778;BME280;3426;52.244;10.534;2023-01-28T02:42:05;101975.53;;;3.76;58.60
6778;BME280;3426;52.244;10.534;2023-01-28T02:44:32;101970.38;;;3.50;59.45
6778;BME280;3426;52.244;10.534;2023-01-28T02:46:59;101967.59;;;3.88;57.41
6778;BME280;3426;52.244;10.534;2023-01-28T02:49:52;101964.97;;;3.86;57.27
6778;BME280;3426;52.244;10.534;2023-01-28T02:58:18;101958.63;;;4.21;56.10
6778;BME280;3426;52.244;10.534;2023-01-28T03:00:50;101962.50;;;4.83;54.64
6778;BME280;3426;52.244;10.534;2023-01-28T03:03:37;101959.06;;;3.44;58.01
6778;BME280;3426;52.244;10.534;2023-01-28T03:06:11;101957.84;;;4.10;56.57
6778;BME280;3426;52.244;10.534;2023-01-28T03:08:51;101962.41;;;3.74;56.73
6778;BME280;3426;52.244;10.534;2023-01-28T03:11:56;101960.72;;;3.64;56.01
6778;BME280;3426;52.244;10.534;2023-01-28T03:14:46;101970.44;;;3.34;56.75
6778;BME280;3426;52.244;10.534;2023-01-28T03:17:54;101961.31;;;4.12;55.43
6778;BME280;3426;52.244;10.534;2023-01-28T03:21:11;101949.31;;;4.89;54.10
6778;BME280;3426;52.244;10.534;2023-01-28T03:24:01;101950.69;;;4.33;54.44
6778;BME280;3426;52.244;10.534;2023-01-28T03:27:06;101966.03;;;3.44;56.06
6778;BME280;3426;52.244;10.534;2023-01-28T03:29:56;101968.72;;;3.30;56.68
6778;BME280;3426;52.244;10.534;2023-01-28T03:32:43;101958.16;;;4.76;53.35
6778;BME280;3426;52.244;10.534;2023-01-28T03:35:30;101954.50;;;4.92;52.33
6778;BME280;3426;52.244;10.534;2023-01-28T03:38:18;101951.72;;;5.08;51.79
6778;BME280;3426;52.244;10.534;2023-01-28T03:40:57;101955.19;;;5.10;52.73
6778;BME280;3426;52.244;10.534;2023-01-28T03:43:25;101963.97;;;4.10;53.88
6778;BME280;3426;52.244;10.534;2023-01-28T03:45:52;101963.34;;;3.61;55.61
6778;BME280;3426;52.244;10.534;2023-01-28T03:48:22;101961.34;;;4.06;54.36
6778;BME280;3426;52.244;10.534;2023-01-28T03:50:50;101957.38;;;4.71;53.20
6778;BME280;3426;52.244;10.534;2023-01-28T03:53:18;101959.97;;;4.72;53.15
6778;BME280;3426;52.244;10.534;2023-01-28T03:55:46;101956.28;;;3.81;55.16
6778;BME280;3426;52.244;10.534;2023-01-28T03:58:14;101959.25;;;4.53;54.49
6778;BME280;3426;52.244;10.534;2023-01-28T04:00:41;101957.59;;;4.42;54.18
6778;BME280;3426;52.244;10.534;2023-01-28T04:03:13;101944.78;;;5.03;52.76
6778;BME280;3426;52.244;10.534;2023-01-28T04:06:00;101956.22;;;4.96;52.65
6778;BME280;3426;52.244;10.534;2023-01-28T04:08:27;101951.72;;;5.08;52.83
6778;BME280;3426;52.244;10.534;2023-01-28T04:10:54;101951.75;;;5.06;52.73
6778;BME280;3426;52.244;10.534;2023-01-28T04:13:20;101960.63;;;3.79;53.48
6778;BME280;3426;52.244;10.534;2023-01-28T04:15:47;101968.22;;;4.27;53.90
6778;BME280;3426;52.244;10.534;2023-01-28T04:18:14;101962.00;;;4.37;53.13
6778;BME280;3426;52.244;10.534;2023-01-28T04:20:40;101965.81;;;3.90;54.71
6778;BME280;3426;52.244;10.534;2023-01-28T04:23:07;101976.09;;;4.22;53.46
6778;BME280;3426;52.244;10.534;2023-01-28T04:25:34;101968.19;;;4.31;53.75
6778;BME280;3426;52.244;10.534;2023-01-28T04:28:00;101967.56;;;5.01;52.27
6778;BME280;3426;52.244;10.534;2023-01-28T04:30:26;101966.00;;;4.84;53.43
6778;BME280;3426;52.244;10.534;2023-01-28T04:32:53;101977.34;;;3.60;55.15
6778;BME280;3426;52.244;10.534;2023-01-28T04:35:20;101975.34;;;4.06;54.85
6778;BME280;3426;52.244;10.534;2023-01-28T04:37:46;101966.53;;;4.13;54.89
6778;BME280;3426;52.244;10.534;2023-01-28T04:40:13;101973.41;;;4.33;53.60
6778;BME280;3426;52.244;10.534;2023-01-28T04:42:39;101986.84;;;3.81;55.40
6778;BME280;3426;52.244;10.534;2023-01-28T04:45:06;101991.31;;;3.59;55.98
6778;BME280;3426;52.244;10.534;2023-01-28T04:47:33;101981.16;;;4.46;54.15
6778;BME280;3426;52.244;10.534;2023-01-28T04:50:00;101992.94;;;3.84;54.82
6778;BME280;3426;52.244;10.534;2023-01-28T04:52:26;101991.16;;;3.89;56.48
6778;BME280;3426;52.244;10.534;2023-01-28T04:54:52;101995.97;;;4.57;53.97
6778;BME280;3426;52.244;10.534;2023-01-28T04:57:19;101997.13;;;4.16;54.17
6778;BME280;3426;52.244;10.534;2023-01-28T04:59:45;102002.28;;;4.31;53.85
6778;BME280;3426;52.244;10.534;2023-01-28T05:02:12;101992.66;;;4.30;53.40
6778;BME280;3426;52.244;10.534;2023-01-28T05:04:38;101998.19;;;3.78;54.42
6778;BME280;3426;52.244;10.534;2023-01-28T05:07:05;101999.56;;;4.40;52.81
6778;BME280;3426;52.244;10.534;2023-01-28T05:09:31;102003.13;;;4.30;52.10
6778;BME280;3426;52.244;10.534;2023-01-28T05:11:57;101999.19;;;4.86;51.41
6778;BME280;3426;52.244;10.534;2023-01-28T05:14:24;102009.47;;;3.94;52.75
6778;BME280;3426;52.244;10.534;2023-01-28T05:16:50;102009.56;;;3.76;54.06
6778;BME280;3426;52.244;10.534;2023-01-28T05:19:17;101999.44;;;4.57;51.34
6778;BME280;3426;52.244;10.534;2023-01-28T05:21:43;102003.16;;;4.29;51.88
6778;BME280;3426;52.244;10.534;2023-01-28T05:24:10;101996.44;;;5.01;50.28
6778;BME280;3426;52.244;10.534;2023-01-28T05:26:37;102001.34;;;4.35;52.49
6778;BME280;3426;52.244;10.534;2023-01-28T05:29:03;102003.97;;;4.37;52.65
6778;BME280;3426;52.244;10.534;2023-01-28T05:31:30;102000.38;;;4.51;53.19
6778;BME280;3426;52.244;10.534;2023-01-28T05:33:56;101995.50;;;3.90;54.77
6778;BME280;3426;52.244;10.534;2023-01-28T05:36:23;101992.19;;;4.88;52.05
6778;BME280;3426;52.244;10.534;2023-01-28T05:38:49;101989.63;;;4.81;52.21
6778;BME280;3426;52.244;10.534;2023-01-28T05:41:16;101985.19;;;4.87;51.91
6778;BME280;3426;52.244;10.534;2023-01-28T05:43:42;101989.47;;;4.97;51.86
6778;BME280;3426;52.244;10.534;2023-01-28T05:46:09;101997.19;;;5.13;50.59
6778;BME280;3426;52.244;10.534;2023-01-28T05:48:35;101999.91;;;3.84;51.72
6778;BME280;3426;52.244;10.534;2023-01-28T05:51:02;101992.44;;;4.58;51.55
6778;BME280;3426;52.244;10.534;2023-01-28T05:53:30;101996.88;;;4.54;50.61
6778;BME280;3426;52.244;10.534;2023-01-28T05:55:57;101995.31;;;4.24;51.99
6778;BME280;3426;52.244;10.534;2023-01-28T05:58:24;101997.44;;;4.90;49.62
6778;BME280;3426;52.244;10.534;2023-01-28T06:00:54;102005.31;;;4.87;50.20
6778;BME280;3426;52.244;10.534;2023-01-28T06:03:21;101994.66;;;5.05;50.21
6778;BME280;3426;52.244;10.534;2023-01-28T06:05:47;101988.34;;;5.21;50.35
6778;BME280;3426;52.244;10.534;2023-01-28T06:08:14;101998.16;;;5.05;50.88
6778;BME280;3426;52.244;10.534;2023-01-28T06:10:40;101992.19;;;4.88;50.35
6778;BME280;3426;52.244;10.534;2023-01-28T06:13:07;101994.94;;;3.00;53.84
6778;BME280;3426;52.244;10.534;2023-01-28T06:15:33;101993.41;;;4.49;51.24
6778;BME280;3426;52.244;10.534;2023-01-28T06:18:00;101989.56;;;4.90;49.73
6778;BME280;3426;52.244;10.534;2023-01-28T06:20:26;101992.03;;;3.91;52.25
6778;BME280;3426;52.244;10.534;2023-01-28T06:22:53;101990.50;;;4.79;50.68
6778;BME280;3426;52.244;10.534;2023-01-28T06:25:19;102002.56;;;3.78;53.04
6778;BME280;3426;52.244;10.534;2023-01-28T06:27:46;101995.50;;;3.93;53.05
6778;BME280;3426;52.244;10.534;2023-01-28T06:30:12;101998.25;;;4.93;50.31
6778;BME280;3426;52.244;10.534;2023-01-28T06:32:39;102002.53;;;5.03;51.09
6778;BME280;3426;52.244;10.534;2023-01-28T06:35:06;102005.84;;;5.24;50.25
6778;BME280;3426;52.244;10.534;2023-01-28T06:37:34;102010.41;;;5.05;50.35
6778;BME280;3426;52.244;10.534;2023-01-28T06:40:00;102006.66;;;4.29;50.35
6778;BME280;3426;52.244;10.534;2023-01-28T06:42:27;102012.38;;;3.10;53.09
6778;BME280;3426;52.244;10.534;2023-01-28T06:44:53;102012.19;;;3.77;52.12
6778;BME280;3426;52.244;10.534;2023-01-28T06:47:20;102010.28;;;4.10;51.80
6778;BME280;3426;52.244;10.534;2023-01-28T06:49:46;102006.72;;;4.21;51.46
6778;BME280;3426;52.244;10.534;2023-01-28T06:52:13;102005.25;;;3.70;52.81
6778;BME280;3426;52.244;10.534;2023-01-28T06:54:39;102013.91;;;3.80;53.27
6778;BME280;3426;52.244;10.534;2023-01-28T06:57:05;102015.47;;;4.20;52.32
6778;BME280;3426;52.244;10.534;2023-01-28T06:59:32;102009.56;;;3.77;53.71
6778;BME280;3426;52.244;10.534;2023-01-28T07:01:58;102010.25;;;4.16;51.63
6778;BME280;3426;52.244;10.534;2023-01-28T07:04:25;102006.72;;;4.17;52.37
6778;BME280;3426;52.244;10.534;2023-01-28T07:06:51;102020.75;;;4.07;52.49
6778;BME280;3426;52.244;10.534;2023-01-28T07:09:18;102016.66;;;3.52;53.46
6778;BME280;3426;52.244;10.534;2023-01-28T07:11:44;102009.34;;;4.21;51.91
6778;BME280;3426;52.244;10.534;2023-01-28T07:14:10;102007.97;;;4.85;50.89
6778;BME280;3426;52.244;10.534;2023-01-28T07:16:37;102020.75;;;4.07;51.92
6778;BME280;3426;52.244;10.534;2023-01-28T07:19:03;102023.31;;;4.19;51.49
6778;BME280;3426;52.244;10.534;2023-01-28T07:21:30;102022.84;;;3.16;53.08
6778;BME280;3426;52.244;10.534;2023-01-28T07:23:56;102020.47;;;4.56;50.23
6778;BME280;3426;52.244;10.534;2023-01-28T07:26:23;102023.16;;;4.45;50.61
6778;BME280;3426;52.244;10.534;2023-01-28T07:28:49;102016.63;;;4.93;49.88
6778;BME280;3426;52.244;10.534;2023-01-28T07:31:16;102027.09;;;4.99;50.24
6778;BME280;3426;52.244;10.534;2023-01-28T07:33:42;102025.56;;;4.72;50.05
6778;BME280;3426;52.244;10.534;2023-01-28T07:36:09;102030.13;;;4.47;50.58
6778;BME280;3426;52.244;10.534;2023-01-28T07:38:35;102025.00;;;4.31;51.52
6778;BME280;3426;52.244;10.534;2023-01-28T07:41:02;102037.69;;;3.29;53.52
6778;BME280;3426;52.244;10.534;2023-01-28T07:43:28;102015.63;;;3.91;52.06
6778;BME280;3426;52.244;10.534;2023-01-28T07:45:55;102026.03;;;4.05;50.60
6778;BME280;3426;52.244;10.534;2023-01-28T07:48:21;102020.88;;;3.85;51.17
6778;BME280;3426;52.244;10.534;2023-01-28T07:50:48;102021.63;;;4.07;50.99
6778;BME280;3426;52.244;10.534;2023-01-28T07:53:14;102020.72;;;4.16;50.86
6778;BME280;3426;52.244;10.534;2023-01-28T07:55:42;102026.78;;;4.24;51.65
6778;BME280;3426;52.244;10.534;2023-01-28T07:58:10;102030.88;;;4.63;50.59
6778;BME280;3426;52.244;10.534;2023-01-28T08:00:37;102021.25;;;4.64;50.18
6778;BME280;3426;52.244;10.534;2023-01-28T08:03:06;102021.66;;;4.03;50.63
6778;BME280;3426;52.244;10.534;2023-01-28T08:05:42;102023.88;;;4.64;50.02
6778;BME280;3426;52.244;10.534;2023-01-28T08:08:10;102031.00;;;4.49;50.79
6778;BME280;3426;52.244;10.534;2023-01-28T08:10:37;102024.56;;;4.89;49.69
6778;BME280;3426;52.244;10.534;2023-01-28T08:13:04;102032.31;;;5.02;49.35
6778;BME280;3426;52.244;10.534;2023-01-28T08:15:31;102040.97;;;5.14;49.23
6778;BME280;3426;52.244;10.534;2023-01-28T08:18:00;102047.41;;;4.77;49.76
6778;BME280;3426;52.244;10.534;2023-01-28T08:20:28;102047.19;;;5.02;49.84
6778;BME280;3426;52.244;10.534;2023-01-28T08:23:10;102050.56;;;5.15;49.42
6778;BME280;3426;52.244;10.534;2023-01-28T08:25:37;102049.75;;;5.10;50.12
6778;BME280;3426;52.244;10.534;2023-01-28T08:28:04;102053.25;;;5.09;49.43
6778;BME280;3426;52.244;10.534;2023-01-28T08:30:32;102055.81;;;5.18;49.00
6778;BME280;3426;52.244;10.534;2023-01-28T08:32:59;102049.94;;;4.87;49.03
6778;BME280;3426;52.244;10.534;2023-01-28T08:35:27;102059.88;;;4.46;49.26
6778;BME280;3426;52.244;10.534;2023-01-28T08:37:54;102057.94;;;4.70;48.64
6778;BME280;3426;52.244;10.534;2023-01-28T08:40:20;102060.31;;;5.03;48.10
6778;BME280;3426;52.244;10.534;2023-01-28T08:42:51;102067.44;;;4.89;48.39
6778;BME280;3426;52.244;10.534;2023-01-28T08:45:20;102077.69;;;5.15;47.95
6778;BME280;3426;52.244;10.534;2023-01-28T08:47:57;102077.94;;;4.88;47.93
6778;BME280;3426;52.244;10.534;2023-01-28T08:50:27;102082.38;;;4.79;48.42
6778;BME280;3426;52.244;10.534;2023-01-28T08:52:56;102087.84;;;4.46;49.19
6778;BME280;3426;52.244;10.534;2023-01-28T08:55:23;102091.28;;;4.60;49.83
6778;BME280;3426;52.244;10.534;2023-01-28T08:57:50;102098.16;;;4.73;50.04
6778;BME280;3426;52.244;10.534;2023-01-28T09:00:18;102089.28;;;4.94;49.59
6778;BME280;3426;52.244;10.534;2023-01-28T09:02:45;102106.53;;;3.80;51.36
6778;BME280;3426;52.244;10.534;2023-01-28T09:05:11;102110.03;;;3.76;51.02
6778;BME280;3426;52.244;10.534;2023-01-28T09:07:38;102101.81;;;4.54;51.16
6778;BME280;3426;52.244;10.534;2023-01-28T09:10:05;102106.47;;;3.92;52.23
6778;BME280;3426;52.244;10.534;2023-01-28T09:12:32;102110.72;;;4.18;51.50
6778;BME280;3426;52.244;10.534;2023-01-28T09:14:58;102096.31;;;4.88;49.61
6778;BME280;3426;52.244;10.534;2023-01-28T09:17:25;102082.03;;;5.19;48.41
6778;BME280;3426;52.244;10.534;2023-01-28T09:19:51;102101.13;;;4.14;49.53
6778;BME280;3426;52.244;10.534;2023-01-28T09:22:18;102102.56;;;4.71;49.83
6778;BME280;3426;52.244;10.534;2023-01-28T09:24:44;102111.31;;;4.69;50.24
6778;BME280;3426;52.244;10.534;2023-01-28T09:27:11;102108.72;;;4.66;49.89
6778;BME280;3426;52.244;10.534;2023-01-28T09:29:37;102119.94;;;4.89;48.53
6778;BME280;3426;52.244;10.534;2023-01-28T09:32:05;102123.91;;;4.09;49.08
6778;BME280;3426;52.244;10.534;2023-01-28T09:34:32;102129.97;;;4.15;49.86
6778;BME280;3426;52.244;10.534;2023-01-28T09:36:59;102134.13;;;4.61;49.90
6778;BME280;3426;52.244;10.534;2023-01-28T09:39:26;102130.22;;;5.18;49.20
6778;BME280;3426;52.244;10.534;2023-01-28T09:42:03;102116.94;;;5.32;49.59
6778;BME280;3426;52.244;10.534;2023-01-28T09:44:59;102123.97;;;5.30;49.72
6778;BME280;3426;52.244;10.534;2023-01-28T09:47:32;102130.72;;;5.58;48.44
6778;BME280;3426;52.244;10.534;2023-01-28T09:50:04;102130.81;;;5.48;48.33
6778;BME280;3426;52.244;10.534;2023-01-28T09:52:35;102144.69;;;4.48;50.51
6778;BME280;3426;52.244;10.534;2023-01-28T09:55:16;102147.88;;;4.98;50.40
6778;BME280;3426;52.244;10.534;2023-01-28T09:57:52;102152.13;;;5.14;49.45
6778;BME280;3426;52.244;10.534;2023-01-28T10:00:24;102149.13;;;5.55;48.32
6778;BME280;3426;52.244;10.534;2023-01-28T10:06:27;102165.63;;;4.58;50.03
6778;BME280;3426;52.244;10.534;2023-01-28T10:12:00;102160.44;;;4.41;51.57
6778;BME280;3426;52.244;10.534;2023-01-28T10:17:43;102157.00;;;4.25;50.55
6778;BME280;3426;52.244;10.534;2023-01-28T10:22:45;102141.66;;;5.08;49.83
6778;BME280;3426;52.244;10.534;2023-01-28T10:25:33;102134.34;;;5.45;48.69
6778;BME280;3426;52.244;10.534;2023-01-28T10:28:01;102121.22;;;5.45;48.33
6778;BME280;3426;52.244;10.534;2023-01-28T10:30:32;102116.28;;;5.09;49.33
6778;BME280;3426;52.244;10.534;2023-01-28T10:33:17;102125.91;;;5.08;49.99
6778;BME280;3426;52.244;10.534;2023-01-28T10:35:45;102127.22;;;4.41;50.37
6778;BME280;3426;52.244;10.534;2023-01-28T10:38:16;102135.81;;;4.71;51.27
6778;BME280;3426;52.244;10.534;2023-01-28T10:40:45;102126.50;;;5.41;49.34
6778;BME280;3426;52.244;10.534;2023-01-28T10:43:18;102119.84;;;4.98;50.36
6778;BME280;3426;52.244;10.534;2023-01-28T10:46:09;102130.59;;;4.63;49.72
6778;BME280;3426;52.244;10.534;2023-01-28T10:48:35;102130.06;;;5.35;49.07
6778;BME280;3426;52.244;10.534;2023-01-28T10:51:04;102116.38;;;4.99;49.80
6778;BME280;3426;52.244;10.534;2023-01-28T10:56:09;102111.47;;;4.46;50.49
6778;BME280;3426;52.244;10.534;2023-01-28T10:58:53;102109.38;;;4.97;49.90
6778;BME280;3426;52.244;10.534;2023-01-28T11:01:23;102117.13;;;5.12;49.71
6778;BME280;3426;52.244;10.534;2023-01-28T11:03:54;102105.53;;;5.33;49.26
6778;BME280;3426;52.244;10.534;2023-01-28T11:06:27;102117.97;;;5.16;49.83
6778;BME280;3426;52.244;10.534;2023-01-28T11:08:54;102106.78;;;4.94;50.56
6778;BME280;3426;52.244;10.534;2023-01-28T11:11:27;102112.47;;;5.43;50.21
6778;BME280;3426;52.244;10.534;2023-01-28T11:13:54;102113.69;;;5.02;49.34
6778;BME280;3426;52.244;10.534;2023-01-28T11:16:24;102120.38;;;4.16;51.56
6778;BME280;3426;52.244;10.534;2023-01-28T11:19:02;102120.31;;;4.31;51.75
6778;BME280;3426;52.244;10.534;2023-01-28T11:21:31;102122.69;;;4.71;50.51
6778;BME280;3426;52.244;10.534;2023-01-28T11:24:11;102126.34;;;4.45;52.15
6778;BME280;3426;52.244;10.534;2023-01-28T11:26:43;102128.84;;;4.67;50.34
6778;BME280;3426;52.244;10.534;2023-01-28T11:29:29;102128.97;;;4.42;50.24
6778;BME280;3426;52.244;10.534;2023-01-28T11:31:57;102135.56;;;5.04;49.46
6778;BME280;3426;52.244;10.534;2023-01-28T11:34:27;102132.94;;;5.06;49.58
6778;BME280;3426;52.244;10.534;2023-01-28T11:37:12;102136.66;;;4.74;50.67
6778;BME280;3426;52.244;10.534;2023-01-28T11:39:38;102136.41;;;5.11;49.71
6778;BME280;3426;52.244;10.534;2023-01-28T11:42:19;102139.31;;;4.68;49.56
6778;BME280;3426;52.244;10.534;2023-01-28T11:44:47;102117.13;;;5.14;49.32
6778;BME280;3426;52.244;10.534;2023-01-28T11:47:34;102116.31;;;5.05;49.13
6778;BME280;3426;52.244;10.534;2023-01-28T11:50:21;102113.13;;;4.65;50.94
6778;BME280;3426;52.244;10.534;2023-01-28T11:52:59;102106.94;;;4.72;50.74
6778;BME280;3426;52.244;10.534;2023-01-28T11:55:54;102107.28;;;4.14;51.59
6778;BME280;3426;52.244;10.534;2023-01-28T12:01:20;102103.91;;;3.80;52.09
6778;BME280;3426;52.244;10.534;2023-01-28T12:04:23;102095.66;;;4.60;49.99
6778;BME280;3426;52.244;10.534;2023-01-28T12:09:54;102090.28;;;4.75;49.38
6778;BME280;3426;52.244;10.534;2023-01-28T12:32:14;102049.44;;;4.36;50.53
6778;BME280;3426;52.244;10.534;2023-01-28T12:35:04;102049.72;;;3.87;51.89
6778;BME280;3426;52.244;10.534;2023-01-28T12:43:37;102058.50;;;3.66;51.11
6778;BME280;3426;52.244;10.534;2023-01-28T12:49:02;102038.56;;;4.88;48.79
6778;BME280;3426;52.244;10.534;2023-01-28T12:51:44;102022.38;;;5.32;48.85
6778;BME280;3426;52.244;10.534;2023-01-28T12:56:55;102014.50;;;5.32;47.81
6778;BME280;3426;52.244;10.534;2023-01-28T12:59:30;102003.41;;;5.02;48.97
6778;BME280;3426;52.244;10.534;2023-01-28T13:08:21;101964.75;;;5.18;48.32
6778;BME280;3426;52.244;10.534;2023-01-28T13:10:49;101956.88;;;5.18;48.73
6778;BME280;3426;52.244;10.534;2023-01-28T13:13:17;101978.69;;;4.28;50.30
6778;BME280;3426;52.244;10.534;2023-01-28T13:16:33;101951.72;;;5.11;48.40
6778;BME280;3426;52.244;10.534;2023-01-28T13:19:20;101939.28;;;4.39;51.65
6778;BME280;3426;52.244;10.534;2023-01-28T13:21:47;101943.16;;;4.90;47.87
6778;BME280;3426;52.244;10.534;2023-01-28T13:26:57;101942.44;;;4.77;48.71
6778;BME280;3426;52.244;10.534;2023-01-28T13:29:32;101955.50;;;4.81;49.30
6778;BME280;3426;52.244;10.534;2023-01-28T13:32:24;101973.03;;;4.78;50.54
6778;BME280;3426;52.244;10.534;2023-01-28T13:35:05;101987.78;;;3.69;51.38
6778;BME280;3426;52.244;10.534;2023-01-28T13:37:42;101986.88;;;3.73;52.21
6778;BME280;3426;52.244;10.534;2023-01-28T13:43:05;101986.03;;;3.62;52.64
6778;BME280;3426;52.244;10.534;2023-01-28T13:45:32;101974.91;;;4.66;50.27
6778;BME280;3426;52.244;10.534;2023-01-28T13:50:38;101993.78;;;3.85;52.72
6778;BME280;3426;52.244;10.534;2023-01-28T13:55:57;101999.63;;;4.34;50.20
6778;BME280;3426;52.244;10.534;2023-01-28T14:01:17;102025.25;;;3.86;52.33
6778;BME280;3426;52.244;10.534;2023-01-28T14:16:55;102019.69;;;4.43;50.90
6778;BME280;3426;52.244;10.534;2023-01-28T14:19:30;102023.53;;;3.81;51.61
6778;BME280;3426;52.244;10.534;2023-01-28T14:21:58;102027.69;;;4.21;51.73
6778;BME280;3426;52.244;10.534;2023-01-28T14:24:25;102020.19;;;4.88;49.69
6778;BME280;3426;52.244;10.534;2023-01-28T14:26:55;102024.28;;;5.18;49.09
6778;BME280;3426;52.244;10.534;2023-01-28T14:32:29;102032.69;;;4.53;51.69
6778;BME280;3426;52.244;10.534;2023-01-28T14:34:58;102023.97;;;4.51;51.16
6778;BME280;3426;52.244;10.534;2023-01-28T14:37:29;102012.47;;;4.69;50.72
6778;BME280;3426;52.244;10.534;2023-01-28T14:40:01;102012.97;;;5.13;49.98
6778;BME280;3426;52.244;10.534;2023-01-28T14:42:36;102006.34;;;4.70;50.11
6778;BME280;3426;52.244;10.534;2023-01-28T14:58:37;102005.41;;;3.18;55.02
6778;BME280;3426;52.244;10.534;2023-01-28T15:01:19;101990.09;;;4.19;52.19
6778;BME280;3426;52.244;10.534;2023-01-28T15:03:45;101981.16;;;4.49;51.43
6778;BME280;3426;52.244;10.534;2023-01-28T15:06:15;101992.81;;;4.09;52.17
6778;BME280;3426;52.244;10.534;2023-01-28T15:08:42;101994.69;;;3.82;52.95
6778;BME280;3426;52.244;10.534;2023-01-28T15:11:15;102013.19;;;3.44;53.84
6778;BME280;3426;52.244;10.534;2023-01-28T15:13:46;102006.69;;;4.23;52.71
6778;BME280;3426;52.244;10.534;2023-01-28T15:16:21;102007.78;;;3.87;53.03
6778;BME280;3426;52.244;10.534;2023-01-28T15:18:49;102021.91;;;3.44;53.85
6778;BME280;3426;52.244;10.534;2023-01-28T15:21:20;102025.47;;;3.16;54.97
6778;BME280;3426;52.244;10.534;2023-01-28T15:23:52;102015.00;;;3.13;54.62